createdAt,value
2018-03-31T00:00:59.380Z,77.05
2018-03-31T00:03:26.709Z,76.93
2018-03-31T00:05:53.741Z,76.63
2018-03-31T00:08:20.788Z,76.45
2018-03-31T00:10:47.864Z,76.51
2018-03-31T00:13:14.918Z,76.44
2018-03-31T00:15:42.216Z,76.31
2018-03-31T00:18:09.378Z,76.34
2018-03-31T00:20:36.475Z,76.38
2018-03-31T00:23:03.532Z,76.08
2018-03-31T00:25:30.617Z,76.25
2018-03-31T00:27:57.661Z,76.06
2018-03-31T00:30:24.698Z,75.97
2018-03-31T00:32:52.007Z,76.21
2018-03-31T00:35:19.111Z,76.00
2018-03-31T00:37:46.206Z,75.66
2018-03-31T00:40:13.501Z,75.42
2018-03-31T00:42:40.556Z,75.56
2018-03-31T00:45:07.599Z,75.50
2018-03-31T00:47:34.679Z,75.82
2018-03-31T00:50:01.722Z,75.86
2018-03-31T00:52:28.767Z,76.44
2018-03-31T00:54:55.877Z,76.60
2018-03-31T00:57:22.933Z,76.97
2018-03-31T00:59:49.989Z,76.73
2018-03-31T01:02:17.074Z,76.58
2018-03-31T01:04:44.105Z,76.68
2018-03-31T01:07:11.147Z,76.56
2018-03-31T01:09:38.537Z,76.95
2018-03-31T01:12:05.586Z,77.34
2018-03-31T01:14:32.620Z,77.44
2018-03-31T01:17:01.366Z,77.65
2018-03-31T01:19:31.193Z,77.61
2018-03-31T01:21:58.276Z,77.96
2018-03-31T01:24:25.388Z,78.38
2018-03-31T01:26:52.477Z,78.05
2018-03-31T01:29:19.515Z,78.36
2018-03-31T01:31:46.910Z,78.42
2018-03-31T01:34:13.951Z,78.29
2018-03-31T01:36:41.055Z,78.20
2018-03-31T01:39:08.128Z,78.32
2018-03-31T01:41:35.164Z,78.27
2018-03-31T01:44:02.270Z,78.53
2018-03-31T01:46:29.415Z,78.40
2018-03-31T01:48:56.446Z,78.17
2018-03-31T01:51:23.478Z,77.99
2018-03-31T01:53:50.842Z,77.71
2018-03-31T01:56:18.294Z,77.71
2018-03-31T01:58:45.378Z,77.50
2018-03-31T02:01:12.762Z,77.35
2018-03-31T02:03:39.797Z,77.18
2018-03-31T02:06:06.847Z,77.61
2018-03-31T02:08:33.942Z,77.65
2018-03-31T02:11:00.983Z,77.70
2018-03-31T02:13:28.078Z,77.80
2018-03-31T02:15:55.174Z,77.79
2018-03-31T02:18:22.294Z,77.77
2018-03-31T02:20:49.327Z,77.85
2018-03-31T02:23:16.482Z,78.30
2018-03-31T02:25:43.666Z,78.33
2018-03-31T02:28:10.702Z,78.27
2018-03-31T02:30:37.805Z,78.39
2018-03-31T02:33:04.841Z,78.92
2018-03-31T02:35:31.872Z,78.81
2018-03-31T02:37:59.393Z,78.56
2018-03-31T02:40:26.444Z,78.09
2018-03-31T02:42:53.491Z,78.48
2018-03-31T02:45:20.596Z,79.03
2018-03-31T02:47:47.693Z,78.71
2018-03-31T02:50:14.738Z,78.11
2018-03-31T02:52:41.826Z,78.32
2018-03-31T02:55:08.881Z,78.70
2018-03-31T02:57:35.916Z,78.95
2018-03-31T03:00:02.997Z,78.89
2018-03-31T03:02:30.129Z,78.81
2018-03-31T03:04:57.161Z,78.29
2018-03-31T03:07:24.232Z,78.04
2018-03-31T03:09:51.300Z,78.26
2018-03-31T03:12:18.316Z,78.42
2018-03-31T03:14:45.760Z,78.46
2018-03-31T03:17:12.819Z,78.90
2018-03-31T03:19:40.194Z,78.94
2018-03-31T03:22:07.266Z,79.28
2018-03-31T03:24:34.363Z,79.16
2018-03-31T03:27:01.385Z,79.18
2018-03-31T03:29:28.548Z,79.30
2018-03-31T03:31:55.600Z,79.14
2018-03-31T03:34:22.636Z,79.48
2018-03-31T03:36:49.928Z,79.41
2018-03-31T03:39:16.953Z,79.26
2018-03-31T03:41:44.825Z,79.10
2018-03-31T03:44:11.917Z,78.75
2018-03-31T03:46:38.962Z,78.43
2018-03-31T03:49:05.994Z,77.94
2018-03-31T03:51:33.349Z,78.08
2018-03-31T03:54:00.384Z,77.97
2018-03-31T03:56:27.434Z,78.06
2018-03-31T03:58:54.521Z,77.70
2018-03-31T04:01:21.621Z,77.72
2018-03-31T04:03:48.657Z,77.52
2018-03-31T04:06:15.712Z,77.71
2018-03-31T04:08:42.838Z,77.48
2018-03-31T04:11:09.869Z,77.42
2018-03-31T04:13:37.247Z,77.20
2018-03-31T04:16:04.350Z,77.35
2018-03-31T04:18:31.390Z,77.18
2018-03-31T04:20:58.944Z,77.99
2018-03-31T04:23:25.987Z,78.46
2018-03-31T04:25:53.042Z,78.58
2018-03-31T04:28:20.199Z,78.24
2018-03-31T04:30:47.215Z,78.14
2018-03-31T04:33:14.270Z,78.45
2018-03-31T04:35:41.386Z,78.86
2018-03-31T04:38:08.416Z,79.18
2018-03-31T04:40:35.458Z,79.45
2018-03-31T04:43:02.568Z,79.50
2018-03-31T04:45:29.589Z,79.43
2018-03-31T04:47:56.691Z,79.24
2018-03-31T04:50:23.830Z,79.24
2018-03-31T04:52:50.938Z,79.01
2018-03-31T04:55:17.964Z,78.91
2018-03-31T04:57:45.308Z,79.14
2018-03-31T05:00:12.351Z,78.76
2018-03-31T05:02:39.427Z,78.47
2018-03-31T05:05:06.750Z,78.00
2018-03-31T05:07:33.779Z,77.69
2018-03-31T05:10:00.810Z,77.11
2018-03-31T05:12:27.946Z,76.31
2018-03-31T05:14:55.024Z,75.62
2018-03-31T05:17:22.064Z,74.95
2018-03-31T05:19:49.185Z,74.04
2018-03-31T05:22:16.425Z,73.63
2018-03-31T05:24:43.538Z,73.09
2018-03-31T05:27:10.613Z,72.82
2018-03-31T05:29:37.651Z,71.33
2018-03-31T05:32:04.693Z,68.90
2018-03-31T05:34:32.033Z,68.75
2018-03-31T05:36:59.141Z,66.47
2018-03-31T05:39:26.247Z,63.61
2018-03-31T05:41:53.335Z,62.34
2018-03-31T05:44:20.364Z,62.89
2018-03-31T05:46:47.478Z,63.13
2018-03-31T05:49:14.569Z,63.16
2018-03-31T05:51:41.612Z,62.88
2018-03-31T05:54:08.658Z,62.48
2018-03-31T05:56:35.750Z,65.15
2018-03-31T05:59:02.799Z,65.71
2018-03-31T06:01:29.911Z,66.93
2018-03-31T06:03:57.098Z,65.92
2018-03-31T06:06:24.134Z,68.10
2018-03-31T06:08:51.182Z,65.90
2018-03-31T06:11:18.592Z,66.15
2018-03-31T06:13:45.690Z,63.19
2018-03-31T06:16:13.075Z,61.01
2018-03-31T06:18:40.186Z,58.15
2018-03-31T06:21:07.281Z,59.62
2018-03-31T06:23:34.358Z,59.17
2018-03-31T06:26:01.450Z,59.90
2018-03-31T06:28:28.584Z,60.37
2018-03-31T06:30:55.631Z,61.63
2018-03-31T06:33:22.726Z,57.95
2018-03-31T06:35:49.846Z,58.22
2018-03-31T06:38:16.890Z,58.82
2018-03-31T06:40:44.042Z,58.93
2018-03-31T06:43:11.093Z,58.38
2018-03-31T06:45:38.152Z,59.43
2018-03-31T06:48:05.306Z,59.23
2018-03-31T06:50:32.349Z,58.16
2018-03-31T06:52:59.382Z,55.74
2018-03-31T06:55:26.470Z,56.20
2018-03-31T06:57:53.511Z,55.63
2018-03-31T07:00:20.555Z,57.39
2018-03-31T07:02:48.137Z,58.68
2018-03-31T07:05:15.170Z,60.11
2018-03-31T07:07:42.222Z,61.45
2018-03-31T07:10:09.364Z,61.24
2018-03-31T07:12:36.410Z,61.10
2018-03-31T07:15:03.451Z,60.57
2018-03-31T07:17:30.849Z,58.38
2018-03-31T07:19:57.914Z,58.03
2018-03-31T07:22:24.968Z,56.61
2018-03-31T07:24:52.113Z,56.65
2018-03-31T07:27:19.135Z,57.46
2018-03-31T07:29:46.201Z,53.74
2018-03-31T07:32:13.863Z,54.88
2018-03-31T07:34:40.917Z,56.44
2018-03-31T07:37:08.013Z,56.21
2018-03-31T07:39:35.107Z,58.23
2018-03-31T07:42:02.250Z,57.68
2018-03-31T07:44:29.297Z,58.45
2018-03-31T07:46:56.396Z,59.86
2018-03-31T07:49:23.443Z,58.11
2018-03-31T07:51:50.476Z,59.92
2018-03-31T07:54:17.563Z,58.74
2018-03-31T07:56:44.600Z,58.60
2018-03-31T07:59:11.637Z,58.19
2018-03-31T08:01:38.926Z,58.07
2018-03-31T08:04:05.954Z,60.82
2018-03-31T08:06:32.993Z,59.38
2018-03-31T08:09:00.093Z,60.99
2018-03-31T08:11:27.210Z,59.74
2018-03-31T08:13:54.359Z,57.95
2018-03-31T08:16:21.472Z,56.21
2018-03-31T08:18:48.507Z,57.34
2018-03-31T08:21:15.545Z,55.84
2018-03-31T08:23:42.642Z,57.24
2018-03-31T08:26:09.989Z,57.24
2018-03-31T08:28:37.032Z,57.29
2018-03-31T08:31:04.137Z,61.03
2018-03-31T08:33:31.182Z,59.92
2018-03-31T08:35:58.231Z,56.94
2018-03-31T08:38:25.347Z,56.64
2018-03-31T08:40:54.016Z,58.09
2018-03-31T08:43:21.070Z,59.78
2018-03-31T08:45:48.164Z,56.39
2018-03-31T08:48:15.206Z,56.43
2018-03-31T08:50:42.325Z,54.19
2018-03-31T08:53:15.696Z,57.90
2018-03-31T08:55:42.725Z,56.11
2018-03-31T08:58:09.768Z,54.24
2018-03-31T09:00:36.849Z,52.03
2018-03-31T09:03:04.735Z,51.83
2018-03-31T09:05:31.778Z,51.43
2018-03-31T09:07:58.872Z,52.21
2018-03-31T09:10:25.896Z,52.45
2018-03-31T09:12:52.996Z,51.90
2018-03-31T09:15:20.073Z,49.17
2018-03-31T09:17:47.146Z,50.60
2018-03-31T09:20:14.180Z,51.09
2018-03-31T09:22:45.781Z,50.44
2018-03-31T09:25:08.315Z,50.56
2018-03-31T09:27:35.513Z,50.31
2018-03-31T09:30:02.584Z,49.54
2018-03-31T09:32:29.608Z,47.57
2018-03-31T09:34:56.686Z,49.69
2018-03-31T09:37:23.787Z,48.83
2018-03-31T09:39:50.815Z,52.20
2018-03-31T09:42:17.910Z,52.56
2018-03-31T09:44:45.300Z,49.91
2018-03-31T09:47:12.339Z,50.65
2018-03-31T09:49:39.384Z,48.23
2018-03-31T09:52:06.453Z,49.12
2018-03-31T09:54:33.511Z,48.90
2018-03-31T09:57:00.548Z,48.60
2018-03-31T09:59:27.632Z,49.43
2018-03-31T10:01:54.660Z,50.54
2018-03-31T10:04:21.701Z,46.98
2018-03-31T10:06:48.780Z,47.17
2018-03-31T10:09:15.828Z,49.43
2018-03-31T10:11:42.856Z,51.25
2018-03-31T10:14:10.006Z,51.83
2018-03-31T10:16:37.086Z,51.07
2018-03-31T10:19:04.132Z,52.00
2018-03-31T10:21:31.417Z,52.69
2018-03-31T10:23:58.454Z,52.66
2018-03-31T10:26:25.482Z,51.01
2018-03-31T10:28:53.317Z,51.62
2018-03-31T10:31:20.425Z,52.25
2018-03-31T10:33:47.457Z,53.07
2018-03-31T10:36:14.519Z,51.29
2018-03-31T10:38:41.546Z,52.25
2018-03-31T10:41:08.646Z,52.19
2018-03-31T10:43:35.746Z,52.86
2018-03-31T10:46:02.776Z,53.79
2018-03-31T10:48:29.869Z,52.46
2018-03-31T10:50:57.023Z,51.04
2018-03-31T10:53:24.667Z,51.73
2018-03-31T10:55:51.704Z,50.60
2018-03-31T10:58:18.810Z,53.42
2018-03-31T11:00:45.839Z,47.32
2018-03-31T11:03:12.882Z,46.40
2018-03-31T11:05:39.961Z,47.28
2018-03-31T11:08:07.006Z,47.83
2018-03-31T11:10:34.054Z,45.81
2018-03-31T11:13:01.145Z,46.15
2018-03-31T11:15:28.665Z,45.47
2018-03-31T11:17:55.715Z,45.35
2018-03-31T11:20:22.804Z,45.42
2018-03-31T11:22:50.114Z,45.65
2018-03-31T11:25:17.161Z,44.46
2018-03-31T11:27:44.248Z,45.29
2018-03-31T11:30:11.455Z,42.65
2018-03-31T11:32:38.487Z,42.98
2018-03-31T11:35:05.579Z,41.37
2018-03-31T11:37:32.674Z,42.09
2018-03-31T11:39:59.720Z,40.98
2018-03-31T11:42:26.888Z,43.95
2018-03-31T11:44:54.001Z,45.38
2018-03-31T11:47:21.052Z,41.73
2018-03-31T11:49:48.177Z,41.23
2018-03-31T11:52:15.246Z,40.91
2018-03-31T11:54:42.837Z,42.24
2018-03-31T11:57:09.948Z,45.14
2018-03-31T11:59:37.142Z,44.58
2018-03-31T12:02:04.437Z,44.50
2018-03-31T12:04:31.628Z,47.34
2018-03-31T12:06:58.885Z,47.78
2018-03-31T12:09:26.199Z,45.64
2018-03-31T12:11:53.579Z,46.00
2018-03-31T12:14:20.708Z,45.45
2018-03-31T12:16:47.873Z,44.56
2018-03-31T12:19:15.433Z,44.59
2018-03-31T12:21:42.693Z,44.71
2018-03-31T12:24:10.052Z,43.30
2018-03-31T12:26:37.389Z,42.75
2018-03-31T12:29:04.670Z,42.71
2018-03-31T12:31:32.014Z,41.98
2018-03-31T12:33:59.381Z,41.50
2018-03-31T12:36:26.687Z,43.73
2018-03-31T12:38:53.972Z,43.50
2018-03-31T12:41:21.358Z,45.09
2018-03-31T12:43:48.626Z,45.10
2018-03-31T12:46:15.792Z,46.96
2018-03-31T12:48:43.163Z,46.28
2018-03-31T12:51:10.459Z,46.17
2018-03-31T12:53:37.702Z,47.81
2018-03-31T12:56:05.289Z,46.80
2018-03-31T12:58:32.490Z,47.50
2018-03-31T13:01:00.423Z,48.20
2018-03-31T13:03:27.921Z,47.64
2018-03-31T13:05:55.152Z,47.05
2018-03-31T13:08:23.595Z,47.37
2018-03-31T13:10:50.960Z,47.59
2018-03-31T13:13:18.413Z,48.32
2018-03-31T13:15:45.734Z,48.07
2018-03-31T13:18:13.021Z,48.07
2018-03-31T13:20:40.156Z,48.17
2018-03-31T13:23:07.215Z,48.42
2018-03-31T13:25:34.385Z,49.30
2018-03-31T13:28:01.860Z,47.74
2018-03-31T13:30:29.005Z,47.85
2018-03-31T13:32:56.730Z,49.57
2018-03-31T13:35:23.775Z,49.06
2018-03-31T13:37:50.836Z,48.77
2018-03-31T13:40:17.916Z,48.47
2018-03-31T13:42:45.095Z,49.40
2018-03-31T13:45:12.205Z,50.36
2018-03-31T13:47:39.307Z,50.77
2018-03-31T13:50:06.360Z,51.63
2018-03-31T13:52:33.508Z,50.77
2018-03-31T13:55:00.674Z,50.99
2018-03-31T13:57:27.711Z,51.94
2018-03-31T13:59:54.811Z,51.28
2018-03-31T14:02:22.164Z,51.08
2018-03-31T14:04:49.202Z,51.58
2018-03-31T14:07:16.307Z,51.36
2018-03-31T14:09:43.427Z,51.92
2018-03-31T14:12:10.553Z,51.40
2018-03-31T14:14:37.654Z,51.98
2018-03-31T14:17:05.020Z,50.75
2018-03-31T14:19:32.101Z,51.40
2018-03-31T14:21:59.379Z,50.64
2018-03-31T14:24:26.463Z,50.38
2018-03-31T14:26:53.518Z,51.29
2018-03-31T14:29:20.565Z,50.57
2018-03-31T14:31:47.866Z,50.65
2018-03-31T14:34:15.167Z,50.95
2018-03-31T14:36:42.207Z,50.77
2018-03-31T14:39:09.300Z,50.81
2018-03-31T14:41:36.340Z,50.69
2018-03-31T14:44:03.392Z,50.53
2018-03-31T14:46:30.493Z,50.18
2018-03-31T14:48:57.533Z,50.57
2018-03-31T14:51:24.628Z,51.31
2018-03-31T14:53:51.710Z,51.63
2018-03-31T14:56:18.887Z,51.16
2018-03-31T14:58:45.952Z,51.44
2018-03-31T15:01:13.231Z,51.46
2018-03-31T15:03:40.386Z,52.00
2018-03-31T15:06:07.551Z,51.22
2018-03-31T15:08:34.706Z,51.71
2018-03-31T15:11:01.816Z,51.61
2018-03-31T15:13:28.867Z,51.86
2018-03-31T15:15:56.934Z,52.51
2018-03-31T15:18:24.086Z,52.24
2018-03-31T15:20:51.137Z,52.81
2018-03-31T15:23:18.392Z,52.32
2018-03-31T15:25:45.429Z,52.80
2018-03-31T15:28:12.542Z,52.92
2018-03-31T15:30:39.658Z,52.81
2018-03-31T15:33:06.758Z,53.11
2018-03-31T15:35:33.887Z,53.14
2018-03-31T15:38:01.109Z,53.08
2018-03-31T15:40:29.219Z,54.07
2018-03-31T15:42:57.209Z,54.90
2018-03-31T15:45:24.293Z,54.24
2018-03-31T15:47:51.325Z,55.01
2018-03-31T15:50:18.354Z,53.93
2018-03-31T15:52:45.589Z,54.25
2018-03-31T15:55:12.643Z,54.16
2018-03-31T15:57:39.678Z,54.65
2018-03-31T16:00:06.806Z,54.72
2018-03-31T16:02:33.838Z,55.20
2018-03-31T16:05:01.266Z,55.56
2018-03-31T16:07:28.422Z,55.37
2018-03-31T16:09:55.510Z,56.04
2018-03-31T16:12:22.565Z,56.14
2018-03-31T16:14:49.669Z,56.24
2018-03-31T16:17:16.710Z,56.40
2018-03-31T16:19:43.759Z,56.67
2018-03-31T16:22:10.943Z,57.23
2018-03-31T16:24:37.977Z,57.27
2018-03-31T16:27:05.117Z,57.47
2018-03-31T16:29:33.222Z,58.18
2018-03-31T16:32:00.337Z,58.28
2018-03-31T16:34:27.752Z,58.62
2018-03-31T16:36:55.888Z,58.76
2018-03-31T16:39:22.989Z,58.88
2018-03-31T16:41:50.040Z,59.50
2018-03-31T16:44:17.188Z,60.03
2018-03-31T16:46:44.238Z,60.13
2018-03-31T16:49:11.817Z,60.04
2018-03-31T16:51:38.914Z,60.04
2018-03-31T16:54:05.974Z,60.40
2018-03-31T16:56:33.082Z,60.64
2018-03-31T16:59:00.277Z,61.13
2018-03-31T17:01:27.331Z,61.31
2018-03-31T17:03:54.366Z,61.41
2018-03-31T17:06:21.473Z,62.05
2018-03-31T17:08:48.528Z,62.33
2018-03-31T17:11:15.573Z,62.95
2018-03-31T17:13:42.822Z,63.33
2018-03-31T17:16:09.902Z,63.63
2018-03-31T17:18:36.959Z,63.96
2018-03-31T17:21:04.156Z,63.80
2018-03-31T17:23:31.208Z,63.69
2018-03-31T17:25:58.253Z,63.67
2018-03-31T17:28:25.421Z,63.40
2018-03-31T17:30:52.472Z,61.42
2018-03-31T17:33:19.575Z,60.97
2018-03-31T17:35:46.726Z,60.50
2018-03-31T17:38:13.979Z,61.17
2018-03-31T17:40:41.010Z,60.56
2018-03-31T17:43:08.116Z,61.04
2018-03-31T17:45:35.157Z,60.85
2018-03-31T17:48:02.275Z,61.42
2018-03-31T17:50:29.474Z,60.99
2018-03-31T17:52:57.098Z,60.64
2018-03-31T17:55:24.200Z,60.63
2018-03-31T17:57:51.288Z,60.04
2018-03-31T18:00:18.317Z,58.84
2018-03-31T18:02:45.370Z,59.16
2018-03-31T18:05:12.540Z,59.21
2018-03-31T18:07:39.586Z,59.28
2018-03-31T18:10:06.694Z,58.94
2018-03-31T18:12:33.831Z,59.09
2018-03-31T18:15:00.865Z,58.99
2018-03-31T18:17:27.907Z,59.26
2018-03-31T18:19:55.089Z,59.13
2018-03-31T18:22:22.154Z,59.46
2018-03-31T18:24:49.226Z,59.43
2018-03-31T18:27:16.330Z,59.74
2018-03-31T18:29:43.438Z,60.43
2018-03-31T18:32:10.489Z,60.60
2018-03-31T18:34:37.646Z,60.93
2018-03-31T18:37:04.682Z,61.57
2018-03-31T18:39:31.862Z,62.02
2018-03-31T18:41:59.020Z,61.79
2018-03-31T18:44:26.074Z,62.07
2018-03-31T18:46:53.113Z,62.09
2018-03-31T18:49:20.270Z,62.39
2018-03-31T18:51:47.317Z,62.95
2018-03-31T18:54:14.417Z,63.06
2018-03-31T18:56:41.606Z,63.08
2018-03-31T18:59:08.707Z,63.75
2018-03-31T19:01:35.770Z,64.09
2018-03-31T19:04:02.908Z,64.33
2018-03-31T19:06:29.957Z,64.35
2018-03-31T19:08:57.066Z,64.09
2018-03-31T19:11:24.162Z,64.00
2018-03-31T19:13:51.221Z,64.06
2018-03-31T19:16:18.298Z,64.37
2018-03-31T19:18:45.444Z,64.07
2018-03-31T19:21:12.594Z,63.98
2018-03-31T19:23:39.632Z,63.78
2018-03-31T19:26:06.727Z,63.06
2018-03-31T19:28:33.832Z,63.25
2018-03-31T19:31:00.930Z,63.65
2018-03-31T19:33:28.110Z,63.53
2018-03-31T19:36:00.635Z,63.61
2018-03-31T19:38:27.721Z,64.13
2018-03-31T19:40:54.946Z,64.21
2018-03-31T19:43:21.980Z,63.61
2018-03-31T19:45:49.065Z,64.18
2018-03-31T19:48:16.182Z,64.51
2018-03-31T19:50:43.220Z,64.69
2018-03-31T19:53:10.328Z,64.62
2018-03-31T19:55:37.376Z,65.11
2018-03-31T19:58:04.638Z,65.24
2018-03-31T20:00:31.726Z,64.94
2018-03-31T20:02:58.781Z,65.34
2018-03-31T20:05:25.883Z,64.90
2018-03-31T20:07:52.984Z,64.38
2018-03-31T20:10:20.021Z,64.29
2018-03-31T20:12:47.148Z,64.45
2018-03-31T20:15:14.456Z,64.62
2018-03-31T20:17:41.495Z,63.75
2018-03-31T20:20:08.765Z,63.61
2018-03-31T20:22:35.866Z,63.69
2018-03-31T20:25:03.690Z,63.72
2018-03-31T20:27:30.798Z,63.50
2018-03-31T20:29:57.970Z,63.72
2018-03-31T20:32:25.088Z,63.68
2018-03-31T20:34:52.244Z,63.54
2018-03-31T20:37:19.344Z,63.71
2018-03-31T20:39:46.893Z,63.41
2018-03-31T20:42:14.086Z,63.66
2018-03-31T20:44:41.284Z,63.41
2018-03-31T20:47:08.317Z,63.38
2018-03-31T20:49:35.357Z,63.41
2018-03-31T20:52:02.456Z,63.38
2018-03-31T20:54:29.559Z,62.98
2018-03-31T20:56:56.594Z,62.72
2018-03-31T20:59:23.764Z,62.92
2018-03-31T21:01:50.868Z,63.06
2018-03-31T21:04:17.913Z,63.17
2018-03-31T21:06:45.010Z,62.67
2018-03-31T21:09:12.114Z,63.13
2018-03-31T21:11:39.165Z,62.48
2018-03-31T21:14:06.639Z,62.70
2018-03-31T21:16:33.687Z,61.58
2018-03-31T21:19:00.713Z,62.17
2018-03-31T21:21:27.804Z,61.82
2018-03-31T21:23:54.871Z,61.68
2018-03-31T21:26:21.925Z,62.62
2018-03-31T21:28:49.120Z,62.69
2018-03-31T21:31:16.170Z,62.58
2018-03-31T21:33:43.206Z,62.80
2018-03-31T21:36:10.393Z,62.75
2018-03-31T21:38:37.496Z,62.81
2018-03-31T21:41:04.602Z,62.85
2018-03-31T21:43:31.789Z,63.10
2018-03-31T21:45:58.823Z,62.78
2018-03-31T21:48:25.865Z,62.99
2018-03-31T21:50:53.150Z,63.19
2018-03-31T21:53:20.177Z,63.30
2018-03-31T21:55:47.228Z,63.39
2018-03-31T21:58:14.324Z,63.44
2018-03-31T22:00:41.371Z,63.53
2018-03-31T22:03:08.472Z,63.83
2018-03-31T22:05:35.714Z,63.67
2018-03-31T22:08:02.827Z,63.98
2018-03-31T22:10:29.874Z,63.88
2018-03-31T22:13:02.497Z,63.90
2018-03-31T22:15:35.050Z,64.66
2018-03-31T22:18:02.146Z,64.67
2018-03-31T22:20:29.238Z,64.90
2018-03-31T22:22:56.338Z,65.39
2018-03-31T22:25:23.377Z,65.53
2018-03-31T22:27:50.901Z,65.65
2018-03-31T22:30:17.954Z,65.75
2018-03-31T22:32:45.001Z,65.80
2018-03-31T22:35:12.234Z,65.69
2018-03-31T22:37:39.273Z,66.02
2018-03-31T22:40:06.322Z,66.35
2018-03-31T22:42:33.582Z,66.69
2018-03-31T22:45:00.674Z,67.09
2018-03-31T22:47:27.734Z,67.01
2018-03-31T22:49:54.842Z,66.72
2018-03-31T22:52:21.905Z,67.08
2018-03-31T22:54:48.937Z,66.89
2018-03-31T22:57:16.014Z,66.90
2018-03-31T22:59:43.047Z,67.11
2018-03-31T23:02:11.040Z,67.09
2018-03-31T23:04:38.295Z,67.10
2018-03-31T23:07:05.341Z,67.32
2018-03-31T23:09:32.406Z,67.41
2018-03-31T23:11:59.502Z,67.58
2018-03-31T23:14:26.626Z,67.50
2018-03-31T23:16:53.713Z,67.18
2018-03-31T23:19:20.935Z,67.57
2018-03-31T23:21:48.043Z,67.34
2018-03-31T23:24:15.090Z,67.78
2018-03-31T23:26:42.220Z,67.58
2018-03-31T23:29:09.264Z,67.38
2018-03-31T23:31:36.314Z,67.57
2018-03-31T23:34:03.409Z,67.42
2018-03-31T23:36:30.445Z,67.52
2018-03-31T23:38:57.486Z,67.57
2018-03-31T23:41:24.574Z,67.54
2018-03-31T23:43:51.682Z,67.59
2018-03-31T23:46:18.872Z,67.36
2018-03-31T23:48:46.031Z,67.68
2018-03-31T23:51:13.127Z,67.56
2018-03-31T23:53:40.229Z,67.43
2018-03-31T23:56:07.428Z,67.61
2018-03-31T23:58:34.466Z,67.63
